Time;durP1;ratioP1;P1;durP2;ratioP2;P2;SDS_P1;SDS_P2;PMS_P1;PMS_P2;Temp;Humidity;BMP_temperature;BMP_pressure;BME280_temperature;BME280_humidity;BME280_pressure;Samples;Min_cycle;Max_cycle;Signal;HPM_P1;HPM_P2
2022/09/13 00:01:33;;;;;;;8.43;7.70;;;;;;;;;;5034034;28;20487;-63
2022/09/13 00:04:00;;;;;;;9.43;7.83;;;;;;;;;;5033833;28;20469;-63
2022/09/13 00:06:28;;;;;;;9.27;7.43;;;;;;;;;;5034090;28;20444;-63
2022/09/13 00:08:57;;;;;;;7.50;6.70;;;;;;;;;;5034098;28;20500;-63
2022/09/13 00:11:25;;;;;;;10.10;8.63;;;;;;;;;;5033460;28;20494;-63
2022/09/13 00:13:53;;;;;;;10.40;8.30;;;;;;;;;;5034132;28;20468;-63
2022/09/13 00:16:21;;;;;;;8.30;7.60;;;;;;;;;;5033726;28;20446;-63
2022/09/13 00:18:49;;;;;;;10.43;8.80;;;;;;;;;;5033347;28;20927;-63
2022/09/13 00:21:17;;;;;;;8.83;8.03;;;;;;;;;;5033683;28;20483;-63
2022/09/13 00:23:44;;;;;;;9.10;7.50;;;;;;;;;;5033792;28;20450;-63
2022/09/13 00:26:13;;;;;;;9.90;8.00;;;;;;;;;;5033621;28;20472;-63
2022/09/13 00:28:41;;;;;;;9.30;7.80;;;;;;;;;;5033128;28;20815;-63
2022/09/13 00:31:09;;;;;;;9.03;7.97;;;;;;;;;;5033546;28;20819;-63
2022/09/13 00:33:36;;;;;;;9.00;8.20;;;;;;;;;;5033313;28;20441;-63
2022/09/13 00:36:05;;;;;;;9.00;8.20;;;;;;;;;;5033374;28;20440;-63
2022/09/13 00:38:32;;;;;;;10.73;7.87;;;;;;;;;;5033445;28;20454;-63
2022/09/13 00:40:59;;;;;;;10.40;9.20;;;;;;;;;;5033358;28;20498;-62
2022/09/13 00:43:41;;;;;;;9.20;8.37;;;;;;;;;;5033467;28;20460;-62
2022/09/13 00:46:09;;;;;;;10.73;9.23;;;;;;;;;;5033387;28;20421;-63
2022/09/13 00:48:36;;;;;;;9.23;8.03;;;;;;;;;;5033059;28;20934;-63
2022/09/13 00:51:04;;;;;;;9.10;8.23;;;;;;;;;;5033230;28;20444;-62
2022/09/13 00:53:34;;;;;;;9.30;8.40;;;;;;;;;;5033307;28;20536;-63
2022/09/13 00:56:02;;;;;;;9.63;8.20;;;;;;;;;;5033274;28;20494;-63
2022/09/13 00:58:32;;;;;;;10.50;8.97;;;;;;;;;;5033004;28;20440;-63
2022/09/13 01:01:02;;;;;;;15.37;9.63;;;;;;;;;;5032714;28;20927;-63
2022/09/13 01:03:30;;;;;;;9.13;8.33;;;;;;;;;;5033850;28;20443;-63
2022/09/13 01:06:00;;;;;;;9.37;8.47;;;;;;;;;;5033065;28;20519;-63
2022/09/13 01:08:28;;;;;;;9.10;8.20;;;;;;;;;;5033174;28;20544;-63
2022/09/13 01:10:58;;;;;;;9.03;8.23;;;;;;;;;;5033135;28;20439;-63
2022/09/13 01:13:27;;;;;;;11.20;8.67;;;;;;;;;;5033265;28;20449;-63
2022/09/13 01:15:54;;;;;;;9.60;8.17;;;;;;;;;;5032941;28;20459;-63
2022/09/13 01:18:23;;;;;;;9.97;8.53;;;;;;;;;;5032867;28;20938;-63
2022/09/13 01:21:05;;;;;;;9.00;8.00;;;;;;;;;;5032618;28;20943;-63
2022/09/13 01:23:47;;;;;;;8.33;7.40;;;;;;;;;;5033239;28;20431;-63
2022/09/13 01:26:31;;;;;;;11.60;9.97;;;;;;;;;;5030531;28;20452;-63
2022/09/13 01:29:18;;;;;;;12.23;7.87;;;;;;;;;;5033307;28;20435;-63
2022/09/13 01:31:51;;;;;;;9.03;8.23;;;;;;;;;;5032421;28;20983;-63
2022/09/13 01:34:24;;;;;;;10.00;9.10;;;;;;;;;;5032701;28;20941;-63
2022/09/13 01:37:06;;;;;;;9.73;8.83;;;;;;;;;;5032860;28;20443;-63
2022/09/13 01:39:48;;;;;;;9.77;8.50;;;;;;;;;;5035243;28;20435;-63
2022/09/13 01:42:17;;;;;;;9.33;8.40;;;;;;;;;;5036689;28;20468;-63
2022/09/13 01:44:51;;;;;;;9.30;8.30;;;;;;;;;;5036449;28;20453;-63
2022/09/13 01:47:25;;;;;;;9.63;8.60;;;;;;;;;;5037031;28;20523;-63
2022/09/13 01:49:57;;;;;;;10.90;9.07;;;;;;;;;;5036664;28;20428;-64
2022/09/13 01:52:26;;;;;;;11.80;9.73;;;;;;;;;;5036522;28;20803;-63
2022/09/13 01:54:57;;;;;;;10.87;8.87;;;;;;;;;;5036567;28;20535;-63
2022/09/13 01:57:29;;;;;;;11.37;10.00;;;;;;;;;;5036877;28;20437;-63
2022/09/13 02:00:01;;;;;;;10.70;9.60;;;;;;;;;;5036366;28;20443;-64
2022/09/13 02:02:32;;;;;;;10.83;9.83;;;;;;;;;;5036201;28;20482;-63
2022/09/13 02:05:01;;;;;;;10.57;9.47;;;;;;;;;;5036100;28;20550;-63
2022/09/13 02:07:32;;;;;;;11.83;10.07;;;;;;;;;;5036214;28;20438;-63
2022/09/13 02:10:03;;;;;;;11.63;9.00;;;;;;;;;;5036701;28;20429;-63
2022/09/13 02:12:32;;;;;;;11.17;9.17;;;;;;;;;;5035828;28;20930;-63
2022/09/13 02:15:03;;;;;;;10.30;9.20;;;;;;;;;;5035698;28;20445;-63
2022/09/13 02:17:34;;;;;;;11.47;10.37;;;;;;;;;;5035871;28;20436;-63
2022/09/13 02:20:02;;;;;;;13.87;9.57;;;;;;;;;;5036025;28;20527;-63
2022/09/13 02:22:32;;;;;;;10.10;9.20;;;;;;;;;;5035710;28;20827;-63
2022/09/13 02:25:02;;;;;;;10.53;9.63;;;;;;;;;;5035879;28;20447;-63
2022/09/13 02:27:32;;;;;;;9.03;8.20;;;;;;;;;;5036137;28;20814;-63
2022/09/13 02:30:03;;;;;;;10.57;9.53;;;;;;;;;;5035896;28;20428;-63
2022/09/13 02:32:33;;;;;;;11.27;9.90;;;;;;;;;;5035441;28;21005;-63
2022/09/13 02:35:03;;;;;;;10.77;9.77;;;;;;;;;;5035895;28;20432;-63
2022/09/13 02:37:33;;;;;;;11.53;10.30;;;;;;;;;;5035534;28;20441;-63
2022/09/13 02:40:03;;;;;;;10.53;9.53;;;;;;;;;;5035543;28;20439;-63
2022/09/13 02:42:32;;;;;;;11.00;9.90;;;;;;;;;;5035099;28;20988;-63
2022/09/13 02:44:59;;;;;;;12.17;10.57;;;;;;;;;;5035918;28;20449;-63
2022/09/13 02:47:35;;;;;;;11.10;10.00;;;;;;;;;;5035380;28;20447;-63
2022/09/13 02:50:12;;;;;;;10.60;9.60;;;;;;;;;;5035193;28;20459;-63
2022/09/13 02:52:46;;;;;;;13.73;9.83;;;;;;;;;;5035370;28;20483;-63
2022/09/13 02:55:17;;;;;;;15.90;9.83;;;;;;;;;;5035987;28;20731;-63
2022/09/13 02:57:49;;;;;;;10.60;9.50;;;;;;;;;;5035253;28;20520;-63
2022/09/13 03:00:17;;;;;;;12.97;9.60;;;;;;;;;;5035138;28;20489;-63
2022/09/13 03:02:46;;;;;;;14.63;11.80;;;;;;;;;;5034648;28;20473;-63
2022/09/13 03:05:13;;;;;;;10.60;9.50;;;;;;;;;;5035010;28;20453;-63
2022/09/13 03:07:40;;;;;;;10.37;9.50;;;;;;;;;;5035396;28;20440;-63
2022/09/13 03:10:08;;;;;;;10.63;9.53;;;;;;;;;;5035019;28;20445;-63
2022/09/13 03:13:02;;;;;;;11.67;9.67;;;;;;;;;;5034608;28;20448;-63
2022/09/13 03:15:35;;;;;;;11.20;10.03;;;;;;;;;;5034705;28;20445;-63
2022/09/13 03:18:09;;;;;;;10.43;9.43;;;;;;;;;;5034885;28;20756;-63
2022/09/13 03:20:41;;;;;;;11.13;10.03;;;;;;;;;;5035509;28;20446;-63
2022/09/13 03:23:24;;;;;;;11.80;10.60;;;;;;;;;;5034731;28;20474;-63
2022/09/13 03:26:00;;;;;;;10.97;9.97;;;;;;;;;;5034436;28;20909;-63
2022/09/13 03:28:33;;;;;;;10.37;9.47;;;;;;;;;;5034359;28;20485;-63
2022/09/13 03:31:04;;;;;;;12.70;10.10;;;;;;;;;;5034293;28;20489;-63
2022/09/13 03:33:40;;;;;;;13.70;10.67;;;;;;;;;;5034537;28;20490;-63
2022/09/13 03:36:11;;;;;;;13.90;10.43;;;;;;;;;;5034200;28;20441;-63
2022/09/13 03:38:41;;;;;;;11.80;10.60;;;;;;;;;;5034454;28;20432;-63
2022/09/13 03:41:10;;;;;;;10.90;9.80;;;;;;;;;;5034711;28;20452;-63
2022/09/13 03:43:39;;;;;;;13.53;10.80;;;;;;;;;;5034202;28;20476;-63
2022/09/13 03:46:07;;;;;;;10.80;9.70;;;;;;;;;;5034558;28;20447;-63
2022/09/13 03:48:38;;;;;;;11.23;10.23;;;;;;;;;;5033842;28;20942;-63
2022/09/13 03:51:05;;;;;;;10.90;9.77;;;;;;;;;;5034160;28;20448;-63
2022/09/13 03:53:34;;;;;;;11.10;10.00;;;;;;;;;;5033868;28;20460;-64
2022/09/13 03:56:02;;;;;;;11.70;9.70;;;;;;;;;;5032208;28;20461;-64
2022/09/13 03:58:29;;;;;;;10.07;9.03;;;;;;;;;;5033844;28;20856;-64
2022/09/13 04:00:56;;;;;;;10.17;8.87;;;;;;;;;;5033686;28;20448;-64
2022/09/13 04:03:23;;;;;;;9.53;8.63;;;;;;;;;;5033385;28;20474;-64
2022/09/13 04:05:52;;;;;;;11.00;9.83;;;;;;;;;;5033519;28;20449;-64
2022/09/13 04:08:19;;;;;;;12.23;9.77;;;;;;;;;;5033568;28;20452;-63
2022/09/13 04:10:50;;;;;;;10.33;9.23;;;;;;;;;;5033782;28;20446;-63
2022/09/13 04:13:18;;;;;;;12.03;9.30;;;;;;;;;;5033703;28;20437;-63
2022/09/13 04:15:45;;;;;;;9.47;8.57;;;;;;;;;;5033723;28;20480;-63
2022/09/13 04:18:12;;;;;;;9.40;8.50;;;;;;;;;;5033445;28;20446;-63
2022/09/13 04:20:40;;;;;;;8.97;7.83;;;;;;;;;;5033592;28;20445;-63
2022/09/13 04:23:08;;;;;;;9.90;9.00;;;;;;;;;;5033386;28;20496;-63
2022/09/13 04:25:39;;;;;;;14.77;8.80;;;;;;;;;;5033690;28;20446;-63
2022/09/13 04:28:06;;;;;;;11.07;10.03;;;;;;;;;;5033343;28;20433;-63
2022/09/13 04:30:34;;;;;;;10.10;9.10;;;;;;;;;;5033077;28;20956;-63
2022/09/13 04:33:01;;;;;;;10.27;9.00;;;;;;;;;;5033317;28;20449;-63
2022/09/13 04:35:28;;;;;;;12.43;8.53;;;;;;;;;;5033714;28;20798;-63
2022/09/13 04:37:57;;;;;;;11.33;8.50;;;;;;;;;;5033274;28;20447;-63
2022/09/13 04:40:25;;;;;;;9.70;8.73;;;;;;;;;;5033256;28;20456;-63
2022/09/13 04:42:52;;;;;;;9.23;8.23;;;;;;;;;;5033221;28;20486;-63
2022/09/13 04:45:20;;;;;;;10.23;7.97;;;;;;;;;;5033306;28;20444;-63
2022/09/13 04:47:52;;;;;;;10.67;8.40;;;;;;;;;;5033330;28;20449;-63
2022/09/13 04:50:20;;;;;;;9.93;8.90;;;;;;;;;;5033154;28;20461;-63
2022/09/13 04:52:47;;;;;;;11.83;9.30;;;;;;;;;;5033432;28;20475;-64
2022/09/13 04:55:15;;;;;;;10.57;8.70;;;;;;;;;;5033069;28;20500;-63
2022/09/13 04:57:43;;;;;;;10.83;9.30;;;;;;;;;;5033304;28;20455;-63
2022/09/13 05:00:11;;;;;;;10.27;9.27;;;;;;;;;;5033064;28;20535;-63
2022/09/13 05:02:38;;;;;;;10.17;9.10;;;;;;;;;;5032964;28;20486;-63
2022/09/13 05:05:06;;;;;;;11.23;10.13;;;;;;;;;;5032791;28;20537;-63
2022/09/13 05:07:33;;;;;;;10.17;9.10;;;;;;;;;;5032958;28;20818;-63
2022/09/13 05:10:00;;;;;;;10.27;8.80;;;;;;;;;;5033142;28;20439;-63
2022/09/13 05:12:27;;;;;;;11.07;9.97;;;;;;;;;;5032879;28;20443;-63
2022/09/13 05:14:56;;;;;;;15.40;10.73;;;;;;;;;;5036432;28;20462;-64
2022/09/13 05:17:23;;;;;;;10.00;8.40;;;;;;;;;;5036573;28;20460;-63
2022/09/13 05:19:50;;;;;;;17.63;9.50;;;;;;;;;;5036760;28;20445;-67
2022/09/13 05:22:17;;;;;;;12.47;10.47;;;;;;;;;;5036801;28;20448;-64
2022/09/13 05:24:44;;;;;;;11.30;10.10;;;;;;;;;;5036846;28;20459;-63
2022/09/13 05:27:11;;;;;;;9.43;8.30;;;;;;;;;;5037219;28;20452;-63
2022/09/13 05:29:39;;;;;;;11.07;9.43;;;;;;;;;;5036854;28;20451;-63
2022/09/13 05:32:07;;;;;;;13.70;10.03;;;;;;;;;;5036893;28;20490;-62
2022/09/13 05:34:34;;;;;;;16.77;9.60;;;;;;;;;;5036651;28;20449;-63
2022/09/13 05:37:02;;;;;;;14.97;10.07;;;;;;;;;;5036680;28;20446;-63
2022/09/13 05:39:29;;;;;;;17.03;10.07;;;;;;;;;;5036596;28;20478;-63
2022/09/13 05:41:57;;;;;;;9.97;8.80;;;;;;;;;;5036873;28;20540;-63
2022/09/13 05:44:25;;;;;;;11.70;8.77;;;;;;;;;;5036071;28;20550;-63
2022/09/13 05:46:52;;;;;;;11.03;9.20;;;;;;;;;;5036413;28;20471;-63
2022/09/13 05:49:21;;;;;;;10.37;9.13;;;;;;;;;;5036365;28;20438;-63
2022/09/13 05:51:48;;;;;;;12.40;9.70;;;;;;;;;;5036435;28;20917;-63
2022/09/13 05:54:15;;;;;;;15.43;9.60;;;;;;;;;;5036236;28;20446;-63
2022/09/13 05:56:42;;;;;;;13.67;10.27;;;;;;;;;;5036319;28;20453;-63
2022/09/13 05:59:13;;;;;;;10.00;8.97;;;;;;;;;;5036222;28;20816;-63
2022/09/13 06:01:40;;;;;;;11.80;9.87;;;;;;;;;;5036506;28;20464;-63
2022/09/13 06:04:07;;;;;;;10.20;8.33;;;;;;;;;;5036065;28;20473;-63
2022/09/13 06:06:36;;;;;;;15.40;10.47;;;;;;;;;;5036357;28;20440;-63
2022/09/13 06:09:05;;;;;;;21.53;13.10;;;;;;;;;;5036316;28;20446;-63
2022/09/13 06:11:32;;;;;;;13.90;9.60;;;;;;;;;;5036297;28;20443;-63
2022/09/13 06:13:59;;;;;;;12.30;10.23;;;;;;;;;;5035693;28;20450;-63
2022/09/13 06:16:26;;;;;;;12.97;10.07;;;;;;;;;;5036140;28;20437;-64
2022/09/13 06:18:54;;;;;;;10.20;9.10;;;;;;;;;;5035933;28;20854;-65
2022/09/13 06:21:22;;;;;;;19.30;9.87;;;;;;;;;;5036261;28;20499;-63
2022/09/13 06:23:51;;;;;;;11.30;9.50;;;;;;;;;;5036258;28;20474;-63
2022/09/13 06:26:19;;;;;;;11.80;10.27;;;;;;;;;;5034603;28;20444;-63
2022/09/13 06:28:48;;;;;;;17.00;10.80;;;;;;;;;;5035668;28;20455;-63
2022/09/13 06:31:15;;;;;;;13.93;9.63;;;;;;;;;;5035057;28;20483;-63
2022/09/13 06:33:43;;;;;;;12.43;9.67;;;;;;;;;;5035655;28;20530;-63
2022/09/13 06:36:12;;;;;;;12.27;10.10;;;;;;;;;;5035985;28;20445;-63
2022/09/13 06:38:40;;;;;;;12.13;9.73;;;;;;;;;;5035893;28;20494;-64
2022/09/13 06:41:10;;;;;;;13.07;10.03;;;;;;;;;;5035265;28;20449;-63
2022/09/13 06:43:37;;;;;;;14.70;10.13;;;;;;;;;;5035389;28;20842;-64
2022/09/13 06:46:06;;;;;;;11.07;9.40;;;;;;;;;;5035451;28;20434;-62
2022/09/13 06:48:34;;;;;;;12.80;10.17;;;;;;;;;;5035702;28;20477;-63
2022/09/13 06:51:01;;;;;;;12.40;9.23;;;;;;;;;;5034980;28;20892;-63
2022/09/13 06:53:28;;;;;;;16.97;10.30;;;;;;;;;;5035357;28;20456;-62
2022/09/13 06:56:03;;;;;;;13.53;9.13;;;;;;;;;;5035112;28;20447;-63
2022/09/13 06:58:32;;;;;;;12.83;10.63;;;;;;;;;;5035688;28;20450;-63
2022/09/13 07:01:10;;;;;;;13.50;9.47;;;;;;;;;;5035112;28;20451;-63
2022/09/13 07:03:38;;;;;;;11.30;9.30;;;;;;;;;;5035153;28;20467;-63
2022/09/13 07:06:09;;;;;;;18.03;10.23;;;;;;;;;;5035125;28;20799;-63
2022/09/13 07:08:36;;;;;;;13.87;9.67;;;;;;;;;;5034921;28;20448;-63
2022/09/13 07:11:04;;;;;;;11.63;10.10;;;;;;;;;;5034700;28;20452;-63
2022/09/13 07:13:32;;;;;;;13.13;9.20;;;;;;;;;;5034933;28;20446;-62
2022/09/13 07:16:02;;;;;;;12.43;8.50;;;;;;;;;;5034807;28;20808;-63
2022/09/13 07:18:29;;;;;;;15.00;9.30;;;;;;;;;;5035250;28;20442;-63
2022/09/13 07:21:00;;;;;;;11.90;9.70;;;;;;;;;;5034660;28;20442;-63
2022/09/13 07:23:27;;;;;;;10.40;9.30;;;;;;;;;;5034846;28;20465;-63
2022/09/13 07:26:00;;;;;;;12.30;9.50;;;;;;;;;;5034644;28;20790;-63
2022/09/13 07:28:27;;;;;;;10.03;8.93;;;;;;;;;;5034942;28;20432;-63
2022/09/13 07:30:57;;;;;;;12.53;10.23;;;;;;;;;;5033986;28;20472;-63
2022/09/13 07:33:25;;;;;;;14.30;11.17;;;;;;;;;;5034329;28;20444;-63
2022/09/13 07:35:55;;;;;;;12.37;9.97;;;;;;;;;;5034494;28;20549;-63
2022/09/13 07:38:22;;;;;;;18.63;11.13;;;;;;;;;;5034523;28;20441;-63
2022/09/13 07:40:54;;;;;;;13.23;10.43;;;;;;;;;;5034027;28;20451;-63
2022/09/13 07:43:21;;;;;;;12.73;11.03;;;;;;;;;;5033996;28;20473;-63
2022/09/13 07:45:48;;;;;;;13.17;10.63;;;;;;;;;;5034052;28;20447;-63
2022/09/13 07:48:17;;;;;;;13.17;9.77;;;;;;;;;;5034485;28;20525;-62
2022/09/13 07:50:44;;;;;;;14.40;10.87;;;;;;;;;;5034099;28;20441;-63
2022/09/13 07:53:11;;;;;;;15.57;11.50;;;;;;;;;;5034435;28;20456;-63
2022/09/13 07:55:38;;;;;;;15.00;10.57;;;;;;;;;;5034094;28;20446;-62
2022/09/13 07:58:05;;;;;;;12.73;10.40;;;;;;;;;;5033804;28;20544;-63
2022/09/13 08:00:33;;;;;;;15.43;10.83;;;;;;;;;;5033845;28;20446;-63
2022/09/13 08:03:00;;;;;;;13.47;12.07;;;;;;;;;;5034416;28;20961;-63
2022/09/13 08:05:29;;;;;;;15.73;11.57;;;;;;;;;;5033808;28;20492;-63
2022/09/13 08:07:56;;;;;;;14.83;11.70;;;;;;;;;;5033893;28;20807;-62
2022/09/13 08:10:23;;;;;;;16.40;11.27;;;;;;;;;;5034075;28;20836;-63
2022/09/13 08:12:50;;;;;;;14.73;11.70;;;;;;;;;;5033003;28;20956;-63
2022/09/13 08:15:17;;;;;;;13.13;11.27;;;;;;;;;;5033728;28;20943;-63
2022/09/13 08:17:44;;;;;;;18.50;12.47;;;;;;;;;;5033172;28;20948;-63
2022/09/13 08:20:12;;;;;;;15.37;12.53;;;;;;;;;;5033725;28;20800;-63
2022/09/13 08:22:40;;;;;;;15.70;11.37;;;;;;;;;;5033624;28;20444;-63
2022/09/13 08:25:08;;;;;;;13.93;12.53;;;;;;;;;;5033196;28;20480;-63
2022/09/13 08:27:35;;;;;;;14.63;13.13;;;;;;;;;;5033331;28;20502;-63
2022/09/13 08:30:02;;;;;;;15.43;12.73;;;;;;;;;;5033101;28;20454;-63
2022/09/13 08:32:29;;;;;;;20.93;13.57;;;;;;;;;;5033817;28;20810;-63
2022/09/13 08:34:56;;;;;;;16.80;13.63;;;;;;;;;;5033636;28;20498;-63
2022/09/13 08:37:24;;;;;;;17.00;14.70;;;;;;;;;;5033140;28;20606;-63
2022/09/13 08:39:53;;;;;;;15.47;12.67;;;;;;;;;;5033513;28;20886;-63
2022/09/13 08:42:25;;;;;;;15.93;14.33;;;;;;;;;;5033359;28;20441;-63
2022/09/13 08:44:54;;;;;;;15.30;12.77;;;;;;;;;;5033392;28;20469;-63
2022/09/13 08:47:31;;;;;;;16.70;14.90;;;;;;;;;;5032883;28;20514;-63
2022/09/13 08:50:02;;;;;;;17.47;14.77;;;;;;;;;;5033070;28;20428;-63
2022/09/13 08:52:31;;;;;;;22.77;14.57;;;;;;;;;;5033275;28;20440;-63
2022/09/13 08:55:01;;;;;;;16.03;14.33;;;;;;;;;;5033662;28;20469;-63
2022/09/13 08:57:32;;;;;;;20.90;15.40;;;;;;;;;;5033236;28;20448;-64
2022/09/13 09:00:02;;;;;;;21.93;14.50;;;;;;;;;;5033694;28;20432;-63
2022/09/13 09:02:50;;;;;;;20.10;14.47;;;;;;;;;;5033254;28;20460;-63
2022/09/13 09:05:18;;;;;;;18.43;14.23;;;;;;;;;;5028108;28;20489;-63
2022/09/13 09:07:47;;;;;;;16.00;14.10;;;;;;;;;;5032770;28;20996;-63
2022/09/13 09:10:17;;;;;;;18.83;15.00;;;;;;;;;;5032285;28;20454;-63
2022/09/13 09:12:46;;;;;;;22.60;17.80;;;;;;;;;;5032108;28;20453;-63
2022/09/13 09:15:16;;;;;;;20.40;16.83;;;;;;;;;;5033269;28;20452;-63
2022/09/13 09:17:47;;;;;;;22.47;15.43;;;;;;;;;;5033373;28;20464;-63
2022/09/13 09:20:24;;;;;;;20.93;16.40;;;;;;;;;;5033035;28;20455;-63
2022/09/13 09:22:52;;;;;;;19.87;16.23;;;;;;;;;;5032742;28;20433;-63
2022/09/13 09:25:21;;;;;;;21.00;16.53;;;;;;;;;;5032946;28;20477;-62
2022/09/13 09:27:48;;;;;;;17.13;14.50;;;;;;;;;;5032942;28;20456;-63
2022/09/13 09:30:16;;;;;;;18.97;14.80;;;;;;;;;;5033356;28;20819;-63
2022/09/13 09:32:58;;;;;;;16.00;13.57;;;;;;;;;;5032757;28;20476;-63
2022/09/13 09:35:45;;;;;;;18.00;13.87;;;;;;;;;;5032727;28;20927;-63
2022/09/13 09:38:30;;;;;;;16.93;14.63;;;;;;;;;;5032929;28;20468;-63
2022/09/13 09:41:00;;;;;;;14.30;12.70;;;;;;;;;;5032842;28;20427;-63
2022/09/13 09:43:32;;;;;;;11.83;10.40;;;;;;;;;;5033049;28;20966;-63
2022/09/13 09:46:01;;;;;;;14.63;11.07;;;;;;;;;;5033067;28;20505;-64
2022/09/13 09:48:31;;;;;;;12.93;10.97;;;;;;;;;;5032512;28;20479;-63
2022/09/13 09:50:58;;;;;;;19.60;8.87;;;;;;;;;;5032833;28;20450;-63
2022/09/13 09:53:27;;;;;;;11.73;10.53;;;;;;;;;;5032510;28;20448;-63
2022/09/13 09:55:59;;;;;;;13.40;11.03;;;;;;;;;;5032755;28;20442;-63
2022/09/13 09:58:39;;;;;;;11.47;10.27;;;;;;;;;;5032774;28;20467;-63
2022/09/13 10:01:06;;;;;;;13.70;9.77;;;;;;;;;;5036688;28;20484;-63
2022/09/13 10:03:34;;;;;;;12.87;10.10;;;;;;;;;;5036270;28;20442;-65
2022/09/13 10:06:06;;;;;;;11.50;10.27;;;;;;;;;;5036374;28;20493;-62
2022/09/13 10:08:34;;;;;;;12.30;10.30;;;;;;;;;;5036103;28;20442;-63
2022/09/13 10:11:02;;;;;;;13.03;10.83;;;;;;;;;;5036162;28;20437;-62
2022/09/13 10:13:31;;;;;;;12.87;11.43;;;;;;;;;;5036075;28;20444;-63
2022/09/13 10:16:01;;;;;;;12.50;11.20;;;;;;;;;;5036254;28;20843;-63
2022/09/13 10:18:29;;;;;;;19.30;11.63;;;;;;;;;;5036106;28;20431;-63
2022/09/13 10:21:01;;;;;;;13.43;12.07;;;;;;;;;;5035973;28;20437;-63
2022/09/13 10:23:28;;;;;;;15.40;11.83;;;;;;;;;;5035992;28;20768;-63
2022/09/13 10:26:06;;;;;;;15.60;12.20;;;;;;;;;;5035851;28;20601;-63
2022/09/13 10:28:35;;;;;;;13.13;11.70;;;;;;;;;;5035840;28;20469;-63
2022/09/13 10:31:07;;;;;;;13.67;11.30;;;;;;;;;;5035798;28;20589;-63
2022/09/13 10:33:36;;;;;;;17.10;12.90;;;;;;;;;;5035738;28;20431;-63
2022/09/13 10:36:05;;;;;;;14.40;12.93;;;;;;;;;;5035653;28;20451;-63
2022/09/13 10:38:34;;;;;;;12.93;10.67;;;;;;;;;;5035595;28;20448;-63
2022/09/13 10:41:03;;;;;;;15.53;13.47;;;;;;;;;;5036006;28;20442;-63
2022/09/13 10:43:31;;;;;;;13.93;12.27;;;;;;;;;;5035445;28;20478;-63
2022/09/13 10:45:59;;;;;;;13.00;11.80;;;;;;;;;;5035573;28;20478;-63
2022/09/13 10:48:30;;;;;;;14.40;12.93;;;;;;;;;;5035011;28;20442;-63
2022/09/13 10:51:04;;;;;;;14.90;13.33;;;;;;;;;;5036009;28;20427;-63
2022/09/13 10:53:36;;;;;;;16.53;14.20;;;;;;;;;;5034898;28;20442;-63
2022/09/13 10:56:04;;;;;;;14.27;12.83;;;;;;;;;;5035212;28;20533;-62
2022/09/13 10:58:31;;;;;;;14.03;12.17;;;;;;;;;;5034880;28;20446;-63
2022/09/13 11:01:14;;;;;;;13.67;12.17;;;;;;;;;;5035068;28;20927;-62
2022/09/13 11:03:51;;;;;;;13.97;12.50;;;;;;;;;;5035136;28;20923;-63
2022/09/13 11:06:21;;;;;;;13.67;12.27;;;;;;;;;;5035257;28;20823;-63
2022/09/13 11:08:52;;;;;;;17.23;11.90;;;;;;;;;;5034688;28;20927;-63
2022/09/13 11:11:24;;;;;;;14.87;13.20;;;;;;;;;;5034671;28;20453;-63
2022/09/13 11:13:58;;;;;;;15.60;13.47;;;;;;;;;;5035176;28;20800;-63
2022/09/13 11:16:35;;;;;;;15.23;13.50;;;;;;;;;;5034970;28;20426;-63
2022/09/13 11:19:17;;;;;;;13.33;11.93;;;;;;;;;;5034984;28;20431;-63
2022/09/13 11:21:50;;;;;;;15.03;13.53;;;;;;;;;;5034597;28;20433;-63
2022/09/13 11:24:47;;;;;;;15.73;12.73;;;;;;;;;;5034311;28;20434;-63
2022/09/13 11:27:18;;;;;;;13.27;11.40;;;;;;;;;;4973552;28;20460;-63
2022/09/13 11:29:52;;;;;;;14.47;12.97;;;;;;;;;;5021924;28;20450;-63
2022/09/13 11:32:26;;;;;;;14.73;11.60;;;;;;;;;;5034879;28;20507;-63
2022/09/13 11:35:02;;;;;;;12.87;11.57;;;;;;;;;;5034979;28;20518;-63
2022/09/13 11:37:35;;;;;;;16.20;11.53;;;;;;;;;;5034924;28;20430;-64
2022/09/13 11:40:23;;;;;;;18.13;11.83;;;;;;;;;;5034803;28;20449;-63
2022/09/13 11:42:57;;;;;;;14.80;12.20;;;;;;;;;;5034284;28;20453;-63
2022/09/13 11:45:25;;;;;;;13.67;12.20;;;;;;;;;;5034480;28;20476;-63
2022/09/13 11:47:58;;;;;;;15.63;14.03;;;;;;;;;;5034172;28;20573;-63
2022/09/13 11:50:35;;;;;;;15.40;11.60;;;;;;;;;;5033910;28;20903;-63
2022/09/13 11:53:13;;;;;;;14.50;13.00;;;;;;;;;;5033819;28;20445;-63
2022/09/13 11:55:43;;;;;;;16.13;13.10;;;;;;;;;;5034173;28;20442;-63
2022/09/13 11:58:13;;;;;;;14.37;11.60;;;;;;;;;;5034057;28;20442;-63
2022/09/13 12:00:42;;;;;;;12.60;11.30;;;;;;;;;;5034390;28;20456;-63
2022/09/13 12:03:13;;;;;;;17.83;11.80;;;;;;;;;;5033605;28;20461;-63
2022/09/13 12:05:43;;;;;;;14.97;11.73;;;;;;;;;;5034437;28;20474;-63
2022/09/13 12:08:14;;;;;;;13.83;11.70;;;;;;;;;;5034621;28;20447;-63
2022/09/13 12:10:44;;;;;;;13.63;10.80;;;;;;;;;;5034003;28;20800;-63
2022/09/13 12:13:14;;;;;;;11.60;10.47;;;;;;;;;;5034209;28;20434;-63
2022/09/13 12:15:43;;;;;;;14.37;11.37;;;;;;;;;;5033777;28;20945;-63
2022/09/13 12:18:14;;;;;;;16.33;10.07;;;;;;;;;;5033693;28;20550;-63
2022/09/13 12:20:45;;;;;;;11.50;10.20;;;;;;;;;;5033721;28;20919;-63
2022/09/13 12:23:15;;;;;;;11.13;10.03;;;;;;;;;;5032951;28;20449;-63
2022/09/13 12:25:46;;;;;;;11.27;9.87;;;;;;;;;;5034038;28;20568;-64
2022/09/13 12:28:17;;;;;;;12.37;10.30;;;;;;;;;;5034084;28;20791;-64
2022/09/13 12:30:48;;;;;;;12.13;10.27;;;;;;;;;;5033632;28;20521;-64
2022/09/13 12:33:16;;;;;;;11.90;10.20;;;;;;;;;;5033725;28;20434;-64
2022/09/13 12:35:50;;;;;;;10.83;9.83;;;;;;;;;;5033577;28;20438;-63
2022/09/13 12:38:28;;;;;;;12.30;8.90;;;;;;;;;;5033182;28;20488;-64
2022/09/13 12:41:04;;;;;;;11.30;9.40;;;;;;;;;;5033676;28;20844;-64
2022/09/13 12:43:39;;;;;;;12.73;10.47;;;;;;;;;;5033363;28;20434;-63
2022/09/13 12:46:17;;;;;;;11.70;9.17;;;;;;;;;;5033415;28;20477;-63
2022/09/13 12:49:05;;;;;;;13.90;9.93;;;;;;;;;;5033383;28;20430;-63
2022/09/13 12:51:41;;;;;;;10.83;9.73;;;;;;;;;;5033557;28;20427;-63
2022/09/13 12:54:16;;;;;;;10.90;9.67;;;;;;;;;;5033031;28;20437;-63
2022/09/13 12:56:50;;;;;;;11.33;8.73;;;;;;;;;;5033712;28;20439;-66
2022/09/13 12:59:23;;;;;;;10.33;9.30;;;;;;;;;;5033007;28;20445;-63
2022/09/13 13:01:51;;;;;;;9.03;8.00;;;;;;;;;;5033768;28;20478;-63
2022/09/13 13:04:20;;;;;;;9.30;8.33;;;;;;;;;;5033223;28;20437;-63
2022/09/13 13:06:54;;;;;;;9.97;8.40;;;;;;;;;;5032877;28;20486;-63
2022/09/13 13:09:23;;;;;;;10.13;8.70;;;;;;;;;;5033409;28;20438;-62
2022/09/13 13:11:53;;;;;;;10.03;8.77;;;;;;;;;;5033311;28;20958;-63
2022/09/13 13:14:28;;;;;;;7.90;6.90;;;;;;;;;;5033051;28;20445;-63
2022/09/13 13:16:55;;;;;;;9.53;7.13;;;;;;;;;;5031239;28;20507;-63
2022/09/13 13:19:29;;;;;;;6.27;5.67;;;;;;;;;;5032503;28;20447;-63
2022/09/13 13:22:17;;;;;;;6.80;5.63;;;;;;;;;;5032477;28;20428;-63
2022/09/13 13:24:46;;;;;;;8.07;7.27;;;;;;;;;;5032104;28;21014;-63
2022/09/13 13:27:32;;;;;;;11.90;7.50;;;;;;;;;;5032405;28;20842;-63
2022/09/13 13:30:14;;;;;;;9.10;6.67;;;;;;;;;;5032481;28;20465;-62
2022/09/13 13:32:56;;;;;;;7.90;6.50;;;;;;;;;;5032191;28;20473;-63
2022/09/13 13:35:29;;;;;;;7.63;6.70;;;;;;;;;;5034275;28;20456;-63
2022/09/13 13:38:14;;;;;;;11.70;6.67;;;;;;;;;;5036250;28;20436;-64
2022/09/13 13:40:41;;;;;;;7.67;6.97;;;;;;;;;;5036565;28;20458;-64
2022/09/13 13:43:30;;;;;;;6.80;6.17;;;;;;;;;;5035978;28;20500;-65
2022/09/13 13:45:58;;;;;;;7.87;7.07;;;;;;;;;;5036277;28;20536;-64
2022/09/13 13:48:43;;;;;;;8.00;5.93;;;;;;;;;;5036214;28;20446;-65
2022/09/13 13:51:28;;;;;;;7.27;5.73;;;;;;;;;;5036065;28;20434;-65
2022/09/13 13:53:59;;;;;;;5.97;5.43;;;;;;;;;;5036359;28;20827;-65
2022/09/13 13:56:31;;;;;;;5.53;4.93;;;;;;;;;;5036313;28;20458;-64
2022/09/13 13:59:04;;;;;;;6.47;4.63;;;;;;;;;;5035664;28;21025;-65
2022/09/13 14:01:34;;;;;;;8.70;5.30;;;;;;;;;;5035896;28;20464;-64
2022/09/13 14:04:11;;;;;;;8.27;5.47;;;;;;;;;;5035705;28;20494;-65
2022/09/13 14:06:44;;;;;;;8.97;5.20;;;;;;;;;;5035969;28;20482;-64
2022/09/13 14:09:19;;;;;;;6.13;5.00;;;;;;;;;;5035675;28;20432;-65
2022/09/13 14:11:53;;;;;;;7.17;3.70;;;;;;;;;;5036136;28;20437;-64
2022/09/13 14:14:29;;;;;;;7.80;4.60;;;;;;;;;;5035705;28;20424;-66
2022/09/13 14:17:02;;;;;;;4.50;4.07;;;;;;;;;;5035252;28;20454;-64
2022/09/13 14:19:31;;;;;;;4.90;4.40;;;;;;;;;;5036014;28;20427;-64
2022/09/13 14:22:13;;;;;;;8.87;4.23;;;;;;;;;;5035659;28;20456;-64
2022/09/13 14:24:45;;;;;;;4.00;3.60;;;;;;;;;;5035715;28;20445;-64
2022/09/13 14:27:15;;;;;;;6.80;4.27;;;;;;;;;;5035419;28;20477;-64
2022/09/13 14:29:45;;;;;;;5.10;3.93;;;;;;;;;;5035395;28;20461;-64
2022/09/13 14:32:16;;;;;;;4.83;3.77;;;;;;;;;;5034619;28;20482;-63
2022/09/13 14:34:51;;;;;;;7.47;3.83;;;;;;;;;;5035590;28;20436;-64
2022/09/13 14:37:20;;;;;;;4.60;4.20;;;;;;;;;;5035532;28;20432;-65
2022/09/13 14:39:59;;;;;;;4.07;3.53;;;;;;;;;;5035418;28;20452;-64
2022/09/13 14:42:27;;;;;;;4.53;3.83;;;;;;;;;;5035449;28;20458;-63
2022/09/13 14:44:55;;;;;;;4.80;3.70;;;;;;;;;;5035169;28;20535;-64
2022/09/13 14:47:26;;;;;;;3.67;3.37;;;;;;;;;;5034211;28;20555;-64